LLHA/HFA METAR and TAF weather

Enter ICAO airport designator
Station Type Date Time Source
LLHA METAR 2021/09/23 18:50 UTC NOAA

LLHA 231850Z 28010KT 9999 FEW035 27/18 Q1008 RMK SCT066


Station Type Date Time Source
LLHA Decoded METAR 2021/09/23 18:50 UTC NOAA

Sde-Haifa Haifa, Israel (LLHA) 32-48N 035-02E 8M
Sep 23, 2021 - 02:50 PM EDT / 2021.09.23 1850 UTC
Wind: from the W (280 degrees) at 12 MPH (10 KT):0
Visibility: greater than 7 mile(s):0
Sky conditions: mostly clear
Temperature: 80 F (27 C)
Dew Point: 64 F (18 C)
Relative Humidity: 57%
Pressure (altimeter): 29.77 in. Hg (1008 hPa)
ob: LLHA 231850Z 28010KT 9999 FEW035 27/18 Q1008 RMK SCT066
cycle: 19

Station Type Date Time Source
LLHA TAF 2021/09/23 18:00 UTC NOAA

TAF LLHA 231708Z 2318/2418 25010KT 9999 SCT035 PROB40
TEMPO 2320/2406 27016KT 6000 RA FEW025TCU BKN030
FM240600 26015KT 9999 SCT035 PROB40
TEMPO 2406/2413 27016KT -RA BKN025
BECMG 2415/2417 29007KT TX27/2411Z TN26/2403Z

Example: see airport list